Time;durP1;ratioP1;P1;durP2;ratioP2;P2;SDS_P1;SDS_P2;PMS_P1;PMS_P2;Temp;Humidity;BMP_temperature;BMP_pressure;BME280_temperature;BME280_humidity;BME280_pressure;Samples;Min_cycle;Max_cycle;Signal;HPM_P1;HPM_P2
2022/01/22 00:01:18;;;;;;;10.40;2.43;;;7.50;99.90;;;;;;6178967;23;20566;-80
2022/01/22 00:03:45;;;;;;;12.30;3.37;;;7.60;99.90;;;;;;6178468;23;20436;-81
2022/01/22 00:06:11;;;;;;;12.37;3.03;;;7.60;99.90;;;;;;6177273;23;20623;-82
2022/01/22 00:08:38;;;;;;;12.40;3.93;;;7.60;99.90;;;;;;6178838;23;20174;-81
2022/01/22 00:11:05;;;;;;;16.30;3.67;;;7.50;99.90;;;;;;6179068;23;20202;-80
2022/01/22 00:16:18;;;;;;;14.03;2.80;;;7.50;99.90;;;;;;6179106;23;20662;-82
2022/01/22 00:18:45;;;;;;;10.27;2.57;;;7.60;99.90;;;;;;6178577;23;20706;-80
2022/01/22 00:21:11;;;;;;;12.40;2.77;;;7.60;99.90;;;;;;6178781;23;20170;-82
2022/01/22 00:23:43;;;;;;;12.87;2.70;;;7.60;99.90;;;;;;6177816;23;20182;-80
2022/01/22 00:26:10;;;;;;;13.70;3.43;;;7.60;99.90;;;;;;6179094;23;20170;-82
2022/01/22 00:28:37;;;;;;;9.80;2.23;;;7.60;99.90;;;;;;6178383;23;20193;-81
2022/01/22 00:31:03;;;;;;;17.27;3.93;;;7.60;99.90;;;;;;6178650;23;20943;-82
2022/01/22 00:33:32;;;;;;;16.63;3.30;;;7.70;99.90;;;;;;6177788;23;20263;-81
2022/01/22 00:35:58;;;;;;;13.17;2.20;;;7.60;99.90;;;;;;6179212;23;20178;-81
2022/01/22 00:38:25;;;;;;;10.83;2.03;;;7.70;99.90;;;;;;6178104;23;20178;-82
2022/01/22 00:40:52;;;;;;;10.47;2.83;;;7.60;99.90;;;;;;6178456;23;20171;-83
2022/01/22 00:43:20;;;;;;;10.40;2.33;;;7.60;99.90;;;;;;6178586;23;20174;-82
2022/01/22 00:45:47;;;;;;;12.57;2.33;;;7.60;99.90;;;;;;6178555;23;20435;-80
2022/01/22 00:48:13;;;;;;;8.50;2.07;;;7.60;99.90;;;;;;6178069;23;20174;-80
2022/01/22 00:50:43;;;;;;;15.63;2.10;;;7.60;99.90;;;;;;6178113;23;20205;-80
2022/01/22 00:53:10;;;;;;;11.10;2.40;;;7.60;99.90;;;;;;6177458;23;20256;-81
2022/01/22 00:55:37;;;;;;;11.60;2.40;;;7.70;99.90;;;;;;6178176;23;20171;-82
2022/01/22 00:58:03;;;;;;;10.73;2.17;;;7.60;99.90;;;;;;6178851;23;20171;-81
2022/01/22 01:00:31;;;;;;;15.57;2.43;;;7.70;99.90;;;;;;6178179;23;20819;-81
2022/01/22 01:02:57;;;;;;;14.27;3.20;;;7.60;99.90;;;;;;6176672;23;20171;-80
2022/01/22 01:05:24;;;;;;;13.07;2.70;;;7.60;99.90;;;;;;6175579;23;20183;-81
2022/01/22 01:07:52;;;;;;;10.87;2.07;;;7.60;99.90;;;;;;6178567;23;20181;-81
2022/01/22 01:10:21;;;;;;;11.97;2.37;;;7.60;99.90;;;;;;6177484;23;20179;-81
2022/01/22 01:12:49;;;;;;;7.67;2.00;;;7.60;99.90;;;;;;6178107;23;20232;-82
2022/01/22 01:15:34;;;;;;;8.03;1.70;;;7.60;99.90;;;;;;6178451;23;20178;-81
2022/01/22 01:34:51;;;;;;;6.13;1.90;;;7.50;99.90;;;;;;6154883;23;20233;-81
2022/01/22 01:37:19;;;;;;;6.87;2.20;;;7.50;99.90;;;;;;6178267;23;20213;-82
2022/01/22 01:39:51;;;;;;;6.40;1.63;;;7.50;99.90;;;;;;6177557;23;20171;-81
2022/01/22 01:42:24;;;;;;;10.23;1.77;;;7.50;99.90;;;;;;6176984;23;20167;-81
2022/01/22 01:44:50;;;;;;;5.40;1.47;;;7.50;99.90;;;;;;6178050;23;20253;-80
2022/01/22 01:47:19;;;;;;;12.80;2.00;;;7.60;99.90;;;;;;6177746;23;20182;-81
2022/01/22 01:49:46;;;;;;;9.57;1.87;;;7.60;99.90;;;;;;6177532;23;20578;-81
2022/01/22 01:52:19;;;;;;;6.77;2.10;;;7.60;99.90;;;;;;6177105;23;20210;-82
2022/01/22 01:55:00;;;;;;;12.57;2.13;;;7.60;99.90;;;;;;6177508;23;20175;-81
2022/01/22 01:57:38;;;;;;;14.40;3.03;;;7.60;99.90;;;;;;6175647;23;20174;-82
2022/01/22 02:00:14;;;;;;;9.90;1.80;;;7.60;99.90;;;;;;6175993;23;20644;-81
2022/01/22 02:02:41;;;;;;;10.17;1.87;;;7.60;99.90;;;;;;6176158;23;20174;-81
2022/01/22 02:05:10;;;;;;;8.23;1.80;;;7.60;99.90;;;;;;6176733;23;20181;-82
2022/01/22 02:07:39;;;;;;;8.43;2.27;;;7.60;99.90;;;;;;6177239;23;20261;-78
2022/01/22 02:10:12;;;;;;;9.40;2.10;;;7.60;99.90;;;;;;6177479;23;20225;-81
2022/01/22 02:13:26;;;;;;;7.77;1.70;;;7.60;99.90;;;;;;6177753;23;20269;-81
2022/01/22 02:23:50;;;;;;;7.50;1.67;;;7.50;99.90;;;;;;6177245;23;20215;-81
2022/01/22 02:26:18;;;;;;;8.50;1.40;;;7.50;99.90;;;;;;6177196;23;20241;-82
2022/01/22 02:28:48;;;;;;;13.37;2.13;;;7.50;99.90;;;;;;6176185;23;20229;-79
2022/01/22 02:31:21;;;;;;;7.27;2.00;;;7.50;99.90;;;;;;6177016;23;20921;-80
2022/01/22 02:33:54;;;;;;;7.53;2.47;;;7.50;99.90;;;;;;6176732;23;20170;-81
2022/01/22 02:36:27;;;;;;;10.60;1.70;;;7.50;99.90;;;;;;6175273;23;20552;-81
2022/01/22 02:38:59;;;;;;;8.10;2.20;;;7.50;99.90;;;;;;6175977;23;20171;-80
2022/01/22 02:41:27;;;;;;;10.27;2.37;;;7.60;99.90;;;;;;6176897;23;20162;-81
2022/01/22 02:43:55;;;;;;;9.23;1.50;;;7.60;99.90;;;;;;6175676;23;20277;-82
2022/01/22 02:46:24;;;;;;;9.40;2.20;;;7.60;99.90;;;;;;6175929;23;20254;-80
2022/01/22 02:48:52;;;;;;;8.47;1.97;;;7.60;99.90;;;;;;6176478;23;20233;-81
2022/01/22 02:51:18;;;;;;;10.33;1.80;;;7.70;99.90;;;;;;6176034;23;20202;-81
2022/01/22 02:53:49;;;;;;;9.40;2.20;;;7.60;99.90;;;;;;6175968;23;20175;-81
2022/01/22 02:56:15;;;;;;;9.80;2.03;;;7.70;99.90;;;;;;6175543;23;20303;-81
2022/01/22 02:58:42;;;;;;;13.23;2.67;;;7.70;99.90;;;;;;6175124;23;20266;-82
2022/01/22 03:01:09;;;;;;;12.33;2.77;;;7.70;99.90;;;;;;6175164;23;20178;-82
2022/01/22 03:03:38;;;;;;;8.27;1.90;;;7.70;99.90;;;;;;6174782;23;20178;-82
2022/01/22 03:06:06;;;;;;;9.13;2.10;;;7.70;99.90;;;;;;6176740;23;20179;-82
2022/01/22 03:08:33;;;;;;;11.90;2.30;;;7.70;99.90;;;;;;6177300;23;20437;-82
2022/01/22 03:11:05;;;;;;;12.27;2.00;;;7.70;99.90;;;;;;6177474;23;20175;-82
2022/01/22 03:16:32;;;;;;;7.07;1.63;;;7.80;99.90;;;;;;6176509;23;20256;-81
2022/01/22 03:19:04;;;;;;;8.73;1.53;;;7.70;99.90;;;;;;6177554;23;20273;-82
2022/01/22 03:21:41;;;;;;;7.20;1.40;;;7.80;99.90;;;;;;6177116;23;20167;-81
2022/01/22 03:29:40;;;;;;;14.17;2.03;;;7.80;99.90;;;;;;6177020;23;20171;-81
2022/01/22 03:32:10;;;;;;;4.23;1.10;;;7.90;99.90;;;;;;6176838;23;20214;-82
2022/01/22 03:34:42;;;;;;;7.97;1.90;;;7.80;99.90;;;;;;6178014;23;20178;-82
2022/01/22 03:37:10;;;;;;;7.13;2.00;;;7.80;99.90;;;;;;6177021;23;20221;-81
2022/01/22 03:39:37;;;;;;;7.77;2.10;;;7.80;99.90;;;;;;6178188;23;20178;-82
2022/01/22 03:42:06;;;;;;;7.73;1.57;;;7.80;99.90;;;;;;6178488;23;20178;-82
2022/01/22 03:44:32;;;;;;;10.40;1.60;;;7.90;99.90;;;;;;6178289;23;20174;-81
2022/01/22 03:46:59;;;;;;;10.13;2.53;;;7.90;99.90;;;;;;6178124;23;20189;-81
2022/01/22 03:49:26;;;;;;;5.50;2.33;;;7.90;99.90;;;;;;6177881;23;20163;-81
2022/01/22 03:51:53;;;;;;;7.27;1.67;;;7.90;99.90;;;;;;6178163;23;20214;-80
2022/01/22 03:54:19;;;;;;;9.43;1.77;;;7.90;99.90;;;;;;6178909;23;20185;-82
2022/01/22 03:56:47;;;;;;;11.17;1.90;;;7.80;99.90;;;;;;6179152;23;20186;-81
2022/01/22 03:59:16;;;;;;;9.17;1.77;;;7.90;99.90;;;;;;6179067;23;20249;-82
2022/01/22 04:04:32;;;;;;;7.00;2.03;;;7.90;99.90;;;;;;6178810;23;20170;-81
2022/01/22 04:09:45;;;;;;;9.97;1.90;;;7.90;99.90;;;;;;6176222;23;20545;-83
2022/01/22 04:12:14;;;;;;;9.70;1.60;;;7.90;99.90;;;;;;6179096;23;20198;-81
2022/01/22 04:14:48;;;;;;;6.87;1.73;;;7.80;99.90;;;;;;6178942;23;20175;-82
2022/01/22 04:17:26;;;;;;;11.97;2.50;;;7.80;99.90;;;;;;6177945;23;20233;-82
2022/01/22 04:25:24;;;;;;;5.23;1.73;;;7.80;99.90;;;;;;6177856;23;20166;-83
2022/01/22 04:27:53;;;;;;;8.30;1.80;;;7.90;99.90;;;;;;6178280;23;20175;-82
2022/01/22 04:30:22;;;;;;;9.03;1.70;;;7.90;99.90;;;;;;6178476;23;20175;-81
2022/01/22 04:32:50;;;;;;;13.13;1.90;;;7.90;99.90;;;;;;6177587;23;20226;-81
2022/01/22 04:35:17;;;;;;;7.60;1.97;;;7.90;99.90;;;;;;6179581;23;20179;-81
2022/01/22 04:37:44;;;;;;;11.20;2.23;;;7.90;99.90;;;;;;6178427;23;20171;-80
2022/01/22 04:40:12;;;;;;;10.40;2.30;;;7.90;99.90;;;;;;6179519;23;20174;-80
2022/01/22 04:42:40;;;;;;;9.80;2.83;;;7.80;99.90;;;;;;6178401;23;20178;-82
2022/01/22 04:45:15;;;;;;;10.77;2.23;;;7.80;99.90;;;;;;6179053;23;20443;-82
2022/01/22 04:47:51;;;;;;;6.83;2.03;;;7.80;99.90;;;;;;6178546;23;20906;-81
2022/01/22 04:55:48;;;;;;;6.20;1.83;;;7.80;99.90;;;;;;6177959;23;20220;-81
2022/01/22 04:58:15;;;;;;;7.40;1.50;;;7.70;99.90;;;;;;6178602;23;20190;-81
2022/01/22 05:00:44;;;;;;;9.27;1.57;;;7.70;99.90;;;;;;6176841;23;20497;-80
2022/01/22 05:03:13;;;;;;;8.73;1.73;;;7.70;99.90;;;;;;6177394;23;20170;-82
2022/01/22 05:05:39;;;;;;;11.97;1.90;;;7.70;99.90;;;;;;6176828;23;20175;-81
2022/01/22 05:08:06;;;;;;;5.70;1.43;;;7.80;99.90;;;;;;6176880;23;20564;-81
2022/01/22 05:10:33;;;;;;;11.33;1.80;;;7.70;99.90;;;;;;6177789;23;20257;-80
2022/01/22 05:13:00;;;;;;;6.27;1.60;;;7.70;99.90;;;;;;6177179;23;20198;-82
2022/01/22 05:15:26;;;;;;;6.57;1.70;;;7.70;99.90;;;;;;6177763;23;20541;-81
2022/01/22 05:17:53;;;;;;;8.40;2.03;;;7.80;99.90;;;;;;6177463;23;20551;-81
2022/01/22 05:20:25;;;;;;;9.67;1.77;;;7.70;99.90;;;;;;6177910;23;20167;-81
2022/01/22 05:22:58;;;;;;;9.43;1.93;;;7.70;99.90;;;;;;6177219;23;20548;-81
2022/01/22 05:25:31;;;;;;;13.33;2.20;;;7.70;99.90;;;;;;6177416;23;20179;-81
2022/01/22 05:39:05;;;;;;;11.87;1.80;;;7.80;99.90;;;;;;6177733;23;20173;-80
2022/01/22 05:41:32;;;;;;;9.37;1.80;;;7.80;99.90;;;;;;6174125;23;20171;-80
2022/01/22 05:43:59;;;;;;;5.87;1.80;;;7.80;99.90;;;;;;6176578;23;20171;-80
2022/01/22 05:46:26;;;;;;;11.97;1.70;;;7.80;99.90;;;;;;6177447;23;20178;-80
2022/01/22 05:48:52;;;;;;;5.73;1.43;;;7.80;99.90;;;;;;6177414;23;20171;-82
2022/01/22 05:51:20;;;;;;;13.30;1.67;;;7.90;99.90;;;;;;6176773;23;20626;-82
2022/01/22 05:54:11;;;;;;;6.87;1.47;;;7.80;99.90;;;;;;6177024;23;20191;-81
2022/01/22 05:59:38;;;;;;;7.90;2.17;;;7.80;99.90;;;;;;6177331;23;20177;-81
2022/01/22 06:02:06;;;;;;;7.93;1.63;;;7.80;99.90;;;;;;6177406;23;20193;-81
2022/01/22 06:04:32;;;;;;;10.57;1.60;;;7.80;99.90;;;;;;6176958;23;20186;-80
2022/01/22 06:07:01;;;;;;;5.80;1.90;;;7.80;99.90;;;;;;6177073;23;20182;-80
2022/01/22 06:09:31;;;;;;;7.47;1.77;;;7.80;99.90;;;;;;6175419;23;20178;-79
2022/01/22 06:12:03;;;;;;;4.77;1.20;;;7.80;99.90;;;;;;6176004;23;20272;-80
2022/01/22 06:14:31;;;;;;;10.97;1.70;;;7.80;99.90;;;;;;6176242;23;20170;-80
2022/01/22 06:16:58;;;;;;;10.47;1.60;;;7.80;99.90;;;;;;6177300;23;20167;-81
2022/01/22 06:19:25;;;;;;;8.80;1.90;;;7.80;99.90;;;;;;6174778;23;20177;-80
2022/01/22 06:21:51;;;;;;;12.00;2.00;;;7.80;99.90;;;;;;6177050;23;20174;-82
2022/01/22 06:24:21;;;;;;;7.33;1.67;;;7.80;99.90;;;;;;6176807;23;20173;-81
2022/01/22 06:26:48;;;;;;;8.23;1.77;;;7.80;99.90;;;;;;6176847;23;20181;-81
2022/01/22 06:29:15;;;;;;;5.03;1.40;;;7.70;99.90;;;;;;6176570;23;20174;-82
2022/01/22 06:31:42;;;;;;;6.63;1.63;;;7.70;99.90;;;;;;6176386;23;20171;-80
2022/01/22 06:34:09;;;;;;;12.93;2.00;;;7.70;99.90;;;;;;6176612;23;20175;-82
2022/01/22 06:36:36;;;;;;;7.20;1.50;;;7.70;99.90;;;;;;6176615;23;20848;-80
2022/01/22 06:39:12;;;;;;;8.77;1.63;;;7.70;99.90;;;;;;6177342;23;20178;-81
2022/01/22 06:41:46;;;;;;;8.07;1.73;;;7.70;99.90;;;;;;6176138;23;20167;-81
2022/01/22 06:44:15;;;;;;;9.53;1.80;;;7.70;99.90;;;;;;6176866;23;20221;-81
2022/01/22 06:46:45;;;;;;;5.53;1.50;;;7.80;99.90;;;;;;6177050;23;20166;-80
2022/01/22 06:49:13;;;;;;;10.33;2.07;;;7.80;99.90;;;;;;6177338;23;20424;-80
2022/01/22 06:51:40;;;;;;;6.93;1.63;;;7.80;99.90;;;;;;6175718;23;20210;-81
2022/01/22 06:54:10;;;;;;;9.77;1.70;;;7.80;99.90;;;;;;6176240;23;20194;-80
2022/01/22 06:56:37;;;;;;;12.53;2.37;;;7.70;99.90;;;;;;6176089;23;20174;-81
2022/01/22 06:59:08;;;;;;;8.53;1.80;;;7.80;99.90;;;;;;6177756;23;20179;-81
2022/01/22 07:01:35;;;;;;;5.97;1.70;;;7.70;99.90;;;;;;6175922;23;20775;-80
2022/01/22 07:04:02;;;;;;;8.47;1.90;;;7.70;99.90;;;;;;6176951;23;20676;-82
2022/01/22 07:06:29;;;;;;;13.40;1.70;;;7.80;99.90;;;;;;6174864;23;20171;-79
2022/01/22 07:08:56;;;;;;;6.83;2.10;;;7.80;99.90;;;;;;6175764;23;20178;-80
2022/01/22 07:11:23;;;;;;;5.87;1.67;;;7.70;99.90;;;;;;6177142;23;20178;-80
2022/01/22 07:13:50;;;;;;;7.70;2.13;;;7.80;99.90;;;;;;6175116;23;20289;-83
2022/01/22 07:16:18;;;;;;;9.10;1.30;;;7.80;99.90;;;;;;6175335;23;20174;-81
2022/01/22 07:18:45;;;;;;;10.03;1.83;;;7.70;99.90;;;;;;6177504;23;20170;-82
2022/01/22 07:21:20;;;;;;;7.20;1.77;;;7.70;99.90;;;;;;6175903;23;20179;-82
2022/01/22 07:26:32;;;;;;;6.40;1.43;;;7.60;99.90;;;;;;6177099;23;20245;-81
2022/01/22 07:28:59;;;;;;;7.40;1.60;;;7.60;99.90;;;;;;6177419;23;20943;-81
2022/01/22 07:31:27;;;;;;;7.97;1.67;;;7.60;99.90;;;;;;6175997;23;20182;-80
2022/01/22 07:33:54;;;;;;;7.30;1.83;;;7.50;99.90;;;;;;6176236;23;20617;-81
2022/01/22 07:36:21;;;;;;;8.27;1.90;;;7.60;99.90;;;;;;6175754;23;20174;-81
2022/01/22 07:38:48;;;;;;;8.80;1.87;;;7.60;99.90;;;;;;6177262;23;20179;-81
2022/01/22 07:41:15;;;;;;;5.83;1.30;;;7.60;99.90;;;;;;6176624;23;20626;-81
2022/01/22 07:43:41;;;;;;;10.10;2.10;;;7.60;99.90;;;;;;6175872;23;20171;-81
2022/01/22 07:46:09;;;;;;;4.90;1.70;;;7.60;99.90;;;;;;6176965;23;20186;-82
2022/01/22 07:48:37;;;;;;;7.97;1.87;;;7.70;99.90;;;;;;6177136;23;20218;-81
2022/01/22 07:51:04;;;;;;;5.97;2.37;;;7.80;99.90;;;;;;6176490;23;20887;-80
2022/01/22 07:53:31;;;;;;;5.07;1.93;;;7.80;99.90;;;;;;6175992;23;20212;-81
2022/01/22 07:55:58;;;;;;;4.67;1.60;;;7.70;99.90;;;;;;6177042;23;20481;-81
2022/01/22 07:58:24;;;;;;;4.60;2.03;;;7.70;99.90;;;;;;6176437;23;20581;-81
2022/01/22 08:00:51;;;;;;;8.83;1.90;;;7.70;99.90;;;;;;6176893;23;20183;-80
2022/01/22 08:03:18;;;;;;;8.13;1.83;;;7.70;99.90;;;;;;6176758;23;20178;-81
2022/01/22 08:05:46;;;;;;;7.13;2.53;;;7.60;99.90;;;;;;6175836;23;20507;-81
2022/01/22 08:08:13;;;;;;;8.63;3.37;;;7.70;99.90;;;;;;6176117;23;20182;-80
2022/01/22 08:10:40;;;;;;;8.53;2.07;;;7.70;99.90;;;;;;6175148;23;20170;-82
2022/01/22 08:13:06;;;;;;;8.33;2.20;;;7.70;99.90;;;;;;6175981;23;20203;-82
2022/01/22 08:15:33;;;;;;;5.13;2.20;;;7.60;99.90;;;;;;6175931;23;20534;-83
2022/01/22 08:18:03;;;;;;;11.10;2.90;;;7.60;99.90;;;;;;6176240;23;20249;-83
2022/01/22 08:20:30;;;;;;;8.17;2.37;;;7.70;99.90;;;;;;6176977;23;20186;-82
2022/01/22 08:22:58;;;;;;;6.17;2.77;;;7.70;99.90;;;;;;6178747;23;20179;-81
2022/01/22 08:25:25;;;;;;;6.63;2.17;;;7.70;99.90;;;;;;6177949;23;20569;-81
2022/01/22 08:30:39;;;;;;;6.90;2.23;;;7.70;99.90;;;;;;6176420;23;20446;-81
2022/01/22 08:33:32;;;;;;;4.50;2.10;;;7.80;99.90;;;;;;6154379;23;20202;-82
2022/01/22 08:35:55;;;;;;;4.80;2.50;;;7.80;99.90;;;;;;6178578;23;20271;-82
2022/01/22 08:38:25;;;;;;;7.63;2.00;;;7.80;99.90;;;;;;6179010;23;20258;-82
2022/01/22 08:40:53;;;;;;;7.57;2.73;;;7.70;99.90;;;;;;6178294;23;20796;-82
2022/01/22 08:43:20;;;;;;;5.47;2.27;;;7.70;99.90;;;;;;6178140;23;20178;-81
2022/01/22 08:45:49;;;;;;;7.63;1.97;;;7.70;99.90;;;;;;6179752;23;20175;-81
2022/01/22 08:48:17;;;;;;;5.00;2.23;;;7.70;99.90;;;;;;6151157;23;20175;-83
2022/01/22 08:50:44;;;;;;;5.90;2.03;;;7.80;99.90;;;;;;6177180;23;20194;-81
2022/01/22 08:53:11;;;;;;;5.30;1.87;;;7.90;99.90;;;;;;6177604;23;20198;-82
2022/01/22 08:55:39;;;;;;;7.13;2.40;;;7.90;99.90;;;;;;6178452;23;20171;-82
2022/01/22 08:58:08;;;;;;;3.77;1.73;;;7.90;99.90;;;;;;6178368;23;20178;-81
2022/01/22 09:00:35;;;;;;;8.17;2.50;;;7.90;99.90;;;;;;6177416;23;20174;-82
2022/01/22 09:03:02;;;;;;;7.27;2.10;;;8.00;99.90;;;;;;6177888;23;20170;-83
2022/01/22 09:05:34;;;;;;;8.60;2.23;;;8.00;99.90;;;;;;6176999;23;20179;-82
2022/01/22 09:08:01;;;;;;;10.00;2.17;;;8.10;99.90;;;;;;6178263;23;20171;-81
2022/01/22 09:10:28;;;;;;;8.83;2.40;;;8.10;99.90;;;;;;6178700;23;20178;-81
2022/01/22 09:12:56;;;;;;;7.53;2.07;;;8.20;99.90;;;;;;6178580;23;20194;-79
2022/01/22 09:15:23;;;;;;;4.83;2.07;;;8.20;99.90;;;;;;6178176;23;20394;-81
2022/01/22 09:17:50;;;;;;;7.80;1.90;;;8.20;99.90;;;;;;6178845;23;20521;-80
2022/01/22 09:20:31;;;;;;;5.80;1.80;;;8.20;99.90;;;;;;6178704;23;20179;-81
2022/01/22 09:22:59;;;;;;;8.17;2.10;;;8.20;99.90;;;;;;6177786;23;20429;-82
2022/01/22 09:25:26;;;;;;;5.87;1.60;;;8.20;99.90;;;;;;6178142;23;20885;-80
2022/01/22 09:27:53;;;;;;;7.37;1.87;;;8.30;99.90;;;;;;6178464;23;20170;-85
2022/01/22 09:30:21;;;;;;;7.03;2.13;;;8.30;99.90;;;;;;6176864;23;20174;-81
2022/01/22 09:32:49;;;;;;;9.83;2.50;;;8.30;99.90;;;;;;6177453;23;20175;-81
2022/01/22 09:35:16;;;;;;;5.83;1.90;;;8.40;99.90;;;;;;6178221;23;20206;-83
2022/01/22 09:37:43;;;;;;;4.73;1.70;;;8.40;99.90;;;;;;6178243;23;20187;-81
2022/01/22 09:40:12;;;;;;;6.07;1.70;;;8.40;99.90;;;;;;6179336;23;20202;-81
2022/01/22 09:42:39;;;;;;;8.10;1.83;;;8.40;99.90;;;;;;6177544;23;20472;-81
2022/01/22 09:45:07;;;;;;;4.53;1.73;;;8.40;99.90;;;;;;6179294;23;20177;-81
2022/01/22 09:47:36;;;;;;;3.17;1.77;;;8.40;99.90;;;;;;6178005;23;20180;-82
2022/01/22 09:50:05;;;;;;;5.90;1.53;;;8.40;99.90;;;;;;6178216;23;20881;-82
2022/01/22 09:52:33;;;;;;;6.47;2.20;;;8.50;99.90;;;;;;6177298;23;20202;-81
2022/01/22 09:55:00;;;;;;;6.23;1.90;;;8.50;99.90;;;;;;6177590;23;20457;-81
2022/01/22 09:57:27;;;;;;;7.23;1.90;;;8.50;99.90;;;;;;6177646;23;20179;-83
2022/01/22 09:59:53;;;;;;;7.87;1.60;;;8.50;99.90;;;;;;6178188;23;20920;-82
2022/01/22 10:02:24;;;;;;;6.47;1.70;;;8.60;99.90;;;;;;6177664;23;20798;-81
2022/01/22 10:04:52;;;;;;;9.60;2.93;;;8.70;99.90;;;;;;6177317;23;20167;-82
2022/01/22 10:07:21;;;;;;;3.87;1.43;;;8.70;99.90;;;;;;6177632;23;20181;-84
2022/01/22 10:09:59;;;;;;;3.93;1.50;;;8.70;99.90;;;;;;6177198;23;20487;-83
2022/01/22 10:12:27;;;;;;;5.40;1.67;;;8.70;99.90;;;;;;6176761;23;20235;-83
2022/01/22 10:15:16;;;;;;;7.03;1.97;;;8.80;99.90;;;;;;6177953;23;20201;-82
2022/01/22 10:17:46;;;;;;;11.67;2.17;;;8.80;99.90;;;;;;6170415;23;20350;-83
2022/01/22 10:20:38;;;;;;;4.57;1.67;;;8.80;99.90;;;;;;6175923;23;20898;-82
2022/01/22 10:23:09;;;;;;;5.67;1.40;;;8.80;99.90;;;;;;6178202;23;20166;-82
2022/01/22 10:25:41;;;;;;;6.57;1.87;;;8.80;99.90;;;;;;6178003;23;20245;-82
2022/01/22 10:28:10;;;;;;;10.80;1.77;;;8.80;99.90;;;;;;6178706;23;20729;-82
2022/01/22 10:30:39;;;;;;;6.60;1.60;;;8.80;99.90;;;;;;6178716;23;20194;-82
2022/01/22 10:36:12;;;;;;;5.37;1.60;;;8.90;99.90;;;;;;6177746;23;20185;-82
2022/01/22 10:38:41;;;;;;;7.00;2.07;;;8.90;99.90;;;;;;6177738;23;20225;-82
2022/01/22 10:41:08;;;;;;;7.10;1.93;;;8.80;99.90;;;;;;6178082;23;20206;-82
2022/01/22 10:43:41;;;;;;;6.93;2.17;;;8.80;99.90;;;;;;6176996;23;20501;-81
2022/01/22 10:46:13;;;;;;;9.17;2.97;;;8.80;99.90;;;;;;6177793;23;20178;-81
2022/01/22 10:48:42;;;;;;;9.10;2.20;;;8.70;99.90;;;;;;6176799;23;20167;-83
2022/01/22 10:51:12;;;;;;;5.57;1.83;;;8.70;99.90;;;;;;6177516;23;20225;-82
2022/01/22 10:53:45;;;;;;;8.40;2.80;;;8.80;99.90;;;;;;6176780;23;20206;-82
2022/01/22 10:56:15;;;;;;;9.60;2.40;;;8.80;99.90;;;;;;6177115;23;20171;-80
2022/01/22 10:58:57;;;;;;;8.63;2.30;;;8.80;99.90;;;;;;6175725;23;20174;-82
2022/01/22 11:01:25;;;;;;;8.90;2.30;;;8.80;99.90;;;;;;6174616;23;20170;-83
2022/01/22 11:04:07;;;;;;;6.03;2.60;;;8.80;99.90;;;;;;6175135;23;20181;-82
2022/01/22 11:06:36;;;;;;;5.67;2.07;;;8.90;99.90;;;;;;6174887;23;20178;-80
2022/01/22 11:09:05;;;;;;;6.77;2.00;;;8.80;99.90;;;;;;6176536;23;20186;-79
2022/01/22 11:11:36;;;;;;;5.27;2.00;;;8.80;99.90;;;;;;6175360;23;20201;-79
2022/01/22 11:14:04;;;;;;;6.80;2.30;;;8.80;99.90;;;;;;6174719;23;20193;-81
2022/01/22 11:16:32;;;;;;;5.63;1.87;;;8.90;99.90;;;;;;6174254;23;20178;-80
2022/01/22 11:19:00;;;;;;;6.33;2.00;;;8.80;99.90;;;;;;6175782;23;20197;-82
2022/01/22 11:21:27;;;;;;;8.23;2.40;;;8.80;99.90;;;;;;6174453;23;20201;-80
2022/01/22 11:23:55;;;;;;;4.47;1.83;;;8.90;99.90;;;;;;6175948;23;20163;-80
2022/01/22 11:26:23;;;;;;;6.93;2.17;;;8.90;99.90;;;;;;6174505;23;20505;-81
2022/01/22 11:28:52;;;;;;;7.10;2.97;;;8.90;99.90;;;;;;6174353;23;20175;-82
2022/01/22 11:31:21;;;;;;;6.13;1.97;;;8.90;99.90;;;;;;6175728;23;20183;-78
2022/01/22 11:33:50;;;;;;;6.87;2.83;;;9.00;99.90;;;;;;6175115;23;20192;-78
2022/01/22 11:36:22;;;;;;;12.87;2.73;;;9.10;99.90;;;;;;6176755;23;20259;-79
2022/01/22 11:38:53;;;;;;;8.93;2.97;;;9.10;99.90;;;;;;6175706;23;20170;-81
2022/01/22 11:41:23;;;;;;;5.87;2.60;;;9.10;99.90;;;;;;6175577;23;20559;-81
2022/01/22 11:44:05;;;;;;;8.43;2.97;;;9.10;99.90;;;;;;6177001;23;20185;-82
2022/01/22 11:46:35;;;;;;;6.37;2.87;;;9.10;99.90;;;;;;6176445;23;20430;-82
2022/01/22 11:49:21;;;;;;;6.43;2.60;;;9.00;99.90;;;;;;6174311;23;20177;-79
2022/01/22 11:51:50;;;;;;;9.63;2.57;;;9.00;99.90;;;;;;6174150;23;20195;-81
2022/01/22 11:54:18;;;;;;;7.07;2.60;;;9.00;99.90;;;;;;6174157;23;20191;-81
2022/01/22 11:56:49;;;;;;;9.33;2.40;;;9.10;99.90;;;;;;6177663;23;20874;-78
2022/01/22 11:59:28;;;;;;;6.23;2.70;;;9.10;99.90;;;;;;6176820;23;20167;-80
2022/01/22 12:01:59;;;;;;;7.40;2.57;;;9.10;99.90;;;;;;6176322;23;20159;-79
2022/01/22 12:04:28;;;;;;;4.63;2.33;;;9.10;99.90;;;;;;6176184;23;20170;-79
2022/01/22 12:07:20;;;;;;;4.63;2.30;;;9.10;99.90;;;;;;6177741;23;20183;-80
2022/01/22 12:10:17;;;;;;;8.33;2.47;;;9.10;99.90;;;;;;6155427;23;20591;-81
2022/01/22 12:15:52;;;;;;;12.93;3.27;;;9.00;99.90;;;;;;6177143;23;20280;-83
2022/01/22 12:18:23;;;;;;;5.70;2.23;;;9.00;99.90;;;;;;6177699;23;20233;-80
2022/01/22 12:23:50;;;;;;;5.17;2.10;;;8.90;99.90;;;;;;6178172;23;20165;-82
2022/01/22 12:26:47;;;;;;;6.53;2.47;;;8.90;99.90;;;;;;6176857;23;20182;-79
2022/01/22 12:29:38;;;;;;;6.87;2.37;;;8.90;99.90;;;;;;6177914;23;20544;-81
2022/01/22 12:32:13;;;;;;;8.83;2.63;;;8.90;99.90;;;;;;6176218;23;20171;-82
2022/01/22 12:35:14;;;;;;;8.97;2.97;;;8.80;99.90;;;;;;6178412;23;20190;-80
2022/01/22 12:37:45;;;;;;;10.93;3.47;;;8.80;99.90;;;;;;6086538;23;20176;-81
2022/01/22 12:40:13;;;;;;;9.73;4.43;;;8.80;99.90;;;;;;6161175;23;20174;-83
2022/01/22 12:43:01;;;;;;;7.43;3.87;;;8.80;99.90;;;;;;6177348;23;20927;-81
2022/01/22 12:45:30;;;;;;;10.57;4.33;;;8.70;99.90;;;;;;6177683;23;20173;-81
2022/01/22 12:47:57;;;;;;;7.47;4.10;;;8.70;99.90;;;;;;6176997;23;20178;-80
2022/01/22 12:50:27;;;;;;;8.13;4.03;;;8.60;99.90;;;;;;6177493;23;20179;-78
2022/01/22 12:52:56;;;;;;;9.10;4.53;;;8.60;99.90;;;;;;6176682;23;20750;-79
2022/01/22 12:55:38;;;;;;;13.37;5.23;;;8.60;99.90;;;;;;6176071;23;20288;-80
2022/01/22 12:58:05;;;;;;;12.67;5.73;;;8.60;99.90;;;;;;6177291;23;20170;-81
2022/01/22 13:00:36;;;;;;;8.37;5.37;;;8.60;99.90;;;;;;6176308;23;20191;-81
2022/01/22 13:03:03;;;;;;;8.53;4.77;;;8.50;99.90;;;;;;6176732;23;20167;-79
2022/01/22 13:05:30;;;;;;;13.67;5.23;;;8.50;99.90;;;;;;6176268;23;20171;-80
2022/01/22 13:08:01;;;;;;;7.33;4.63;;;8.50;99.90;;;;;;6176298;23;20166;-81
2022/01/22 13:10:33;;;;;;;7.03;4.43;;;8.40;99.90;;;;;;6176882;23;20213;-78
2022/01/22 13:13:01;;;;;;;13.67;4.97;;;8.40;99.90;;;;;;6177543;23;20544;-80
2022/01/22 13:15:28;;;;;;;9.13;4.97;;;8.50;99.90;;;;;;6175875;23;20202;-80
2022/01/22 13:17:59;;;;;;;8.17;4.60;;;8.40;99.90;;;;;;6176824;23;20171;-81
2022/01/22 13:20:29;;;;;;;10.30;5.60;;;8.40;99.90;;;;;;6176354;23;20209;-80
2022/01/22 13:22:56;;;;;;;8.20;5.30;;;8.40;99.90;;;;;;6177146;23;20239;-81
2022/01/22 13:25:23;;;;;;;8.67;5.63;;;8.40;99.90;;;;;;6174611;23;20171;-81
2022/01/22 13:28:01;;;;;;;8.80;5.00;;;8.40;99.90;;;;;;6174882;23;20491;-80
2022/01/22 13:30:33;;;;;;;22.30;12.80;;;8.40;99.90;;;;;;6176924;23;20470;-81
2022/01/22 13:33:16;;;;;;;11.77;6.70;;;8.50;99.90;;;;;;6177854;23;20178;-82
2022/01/22 13:35:54;;;;;;;12.03;4.90;;;8.40;99.90;;;;;;6177240;23;20330;-80
2022/01/22 13:38:37;;;;;;;13.37;5.03;;;8.40;99.90;;;;;;6177054;23;20171;-81
2022/01/22 13:49:30;;;;;;;9.27;5.10;;;8.30;99.90;;;;;;6176792;23;20205;-80
2022/01/22 13:52:00;;;;;;;7.47;5.23;;;8.40;99.90;;;;;;6175420;23;20209;-80
2022/01/22 13:54:29;;;;;;;11.80;5.33;;;8.40;99.90;;;;;;6176834;23;20194;-79
2022/01/22 13:56:59;;;;;;;7.77;4.20;;;8.40;99.90;;;;;;6177415;23;20210;-81
2022/01/22 13:59:28;;;;;;;6.97;4.47;;;8.40;99.90;;;;;;6177062;23;20231;-80
2022/01/22 14:02:20;;;;;;;7.00;4.60;;;8.40;99.90;;;;;;6177004;23;20182;-82
2022/01/22 14:04:50;;;;;;;7.53;4.67;;;8.50;99.90;;;;;;6176408;23;20640;-82
2022/01/22 14:07:25;;;;;;;12.17;5.50;;;8.50;99.90;;;;;;6176666;23;20175;-81
2022/01/22 14:10:02;;;;;;;8.60;4.57;;;8.50;99.90;;;;;;6176528;23;20166;-81
2022/01/22 14:12:35;;;;;;;10.27;4.20;;;8.50;99.90;;;;;;6176346;23;20177;-79
2022/01/22 14:15:11;;;;;;;9.13;4.50;;;8.50;99.90;;;;;;6176380;23;21017;-80
2022/01/22 14:17:54;;;;;;;10.43;5.00;;;8.50;99.90;;;;;;6176143;23;20171;-80
2022/01/22 14:20:26;;;;;;;7.63;4.43;;;8.50;99.90;;;;;;6176181;23;20181;-81
2022/01/22 14:23:01;;;;;;;9.80;4.87;;;8.50;99.90;;;;;;6177038;23;20170;-80
2022/01/22 14:25:28;;;;;;;9.63;4.40;;;8.50;99.90;;;;;;6175821;23;20539;-82
2022/01/22 14:28:04;;;;;;;8.63;4.00;;;8.50;99.90;;;;;;6176912;23;20174;-80
2022/01/22 14:30:49;;;;;;;6.70;4.40;;;8.50;99.90;;;;;;6175746;23;20181;-81
2022/01/22 14:33:17;;;;;;;5.83;3.60;;;8.50;99.90;;;;;;6176318;23;20171;-80
2022/01/22 14:35:57;;;;;;;6.27;3.40;;;8.50;99.90;;;;;;6183766;23;20526;-81
2022/01/22 14:38:39;;;;;;;8.70;3.67;;;8.50;99.90;;;;;;6205067;23;20244;-81
2022/01/22 14:44:07;;;;;;;8.93;4.27;;;8.50;99.90;;;;;;6205765;23;20670;-79